• Join FlightAware (Why Join?)
  • Login
  • US Flag 
01:29PM EDT


 

Airport Tracker/Info


-or-


 

Live Flight TrackerFlight Track Log ✈ ACA1805 ✈ 20-Apr-2013 ✈ MUHG / HOG - CYUL

Flight Track Log - Related Links

Times and Time Zones

All times are in EDT time to prevent confusion due to time zone crossing. See the ACA1805 flight status page for this flight to view local times or setup timezone preferences in your user account.

Time Position Orientation Groundspeed Altitude Reporting Facility
EDT Latitude Longitude Course Direction KTS MPH feet Rate Location/Type
12:24PM 21.5260 -76.5172 346° North  Level FlightAware Approximate
12:25PM 21.6494 -76.5511 346° North  Level FlightAware Approximate
12:26PM 21.7728 -76.5850 346° North  Level FlightAware Approximate
12:27PM 21.8961 -76.6190 346° North  Level FlightAware Approximate
12:28PM 22.0195 -76.6531 346° North  Level FlightAware Approximate
12:29PM 22.1428 -76.6872 346° North  Level FlightAware Approximate
12:30PM 22.2662 -76.7214 346° North  Level FlightAware Approximate
12:31PM 22.3895 -76.7556 346° North  Level FlightAware Approximate
12:32PM 22.5129 -76.7899 346° North  Level FlightAware Approximate
12:33PM 22.6362 -76.8243 346° North  Level FlightAware Approximate
12:34PM 22.7595 -76.8587 346° North  Level FlightAware Approximate
12:35PM 22.8828 -76.8932 346° North  Level FlightAware Approximate
12:36PM 23.0006 -76.9261 346° North  Level FlightAware Approximate
12:37PM 23.1240 -76.9603 346° North  Level FlightAware Approximate
12:38PM 23.2474 -76.9946 346° North  Level FlightAware Approximate
12:39PM 23.3670 -77.0389 351° North  Level FlightAware Approximate
12:40PM 23.4915 -77.0669 345° North  Level FlightAware Approximate
12:41PM 23.6145 -77.1028 345° North  Level FlightAware Approximate
12:42PM 23.7376 -77.1387 345° North  Level FlightAware Approximate
12:43PM 23.8605 -77.1747 345° North  Level FlightAware Approximate
12:44PM 23.9835 -77.2108 345° North  Level FlightAware Approximate
12:45PM 24.1065 -77.2469 345° North  Level FlightAware Approximate
12:45PM 23.3172 -78.4653 North 446 513 36,000  Level Miami Center
12:46PM 24.2295 -77.2832 345° North  Level FlightAware Approximate
12:46PM 23.4106 -78.5481 321° Northwest 443 510 36,000  Level Miami Center
12:47PM 24.3525 -77.3194 345° North  Level FlightAware Approximate
12:47PM 23.5036 -78.6308 321° Northwest 431 496 35,900  Level Miami Center
12:48PM 24.4755 -77.3558 345° North  Level FlightAware Approximate
12:48PM 23.5964 -78.7136 321° Northwest 431 496 36,000  Level Miami Center
12:49PM 24.5984 -77.3922 345° North  Level FlightAware Approximate
12:49PM 23.6856 -78.7897 322° Northwest 423 487 36,000  Level Miami Center
12:50PM 24.7261 -77.3746 North  Level Estimated
12:50PM 23.7886 -78.8867 319° Northwest 428 493 36,000  Level Miami Center
12:51PM 23.8814 -78.9700 321° Northwest 434 499 36,000  Level Miami Center
12:52PM 23.9764 -79.0489 323° Northwest 429 494 36,000  Level Miami Center
12:53PM 24.0906 -79.1100 334° Northwest 436 502 36,000  Level Miami Center
12:54PM 24.1944 -79.1439 343° North 418 481 36,000  Level Miami Center
12:55PM 24.3169 -79.1917 340° North 434 499 36,000 -60 Level Miami Center
12:56PM 24.4356 -79.2303 343° North 439 505 35,900 -60 Descending Miami Center
12:57PM 24.5497 -79.2736 341° North 439 505 35,900  Level Miami Center
12:58PM 24.6661 -79.3147 342° North 439 505 36,000  Climbing Miami Center
12:59PM 24.7781 -79.3606 340° North 439 505 35,900  Descending Miami Center
01:00PM 24.8944 -79.4017 342° North 439 505 36,000 660 Climbing Miami Center
01:01PM 25.0067 -79.4431 342° North 434 499 37,300 900 Climbing Miami Center
01:02PM 25.1186 -79.4844 341° North 424 488 37,800 300 Climbing Miami Center
01:03PM 25.2267 -79.5236 342° North 419 482 38,000 60 Climbing Miami Center
01:04PM 25.3367 -79.5672 340° North 419 482 38,000  Level Miami Center
01:05PM 25.4444 -79.6064 342° North 419 482 38,000 -60 Level Miami Center
01:06PM 25.5544 -79.6458 342° North 414 476 37,900 -60 Descending Miami Center
01:07PM 25.6622 -79.6875 341° North 409 471 37,900  Level Miami Center
01:08PM 25.7742 -79.7294 341° North 409 471 38,000  Climbing Miami Center
01:09PM 25.8819 -79.7736 340° North 409 471 38,000 -60 Level Miami Center
01:10PM 25.9919 -79.8131 342° North 409 471 37,900 -60 Descending Miami Center
01:11PM 26.1019 -79.8553 341° North 409 471 37,900  Level Miami Center
01:12PM 26.2139 -79.8975 341° North 409 471 37,900 -360 Level Miami Center
01:13PM 26.3258 -79.9397 341° North 415 478 37,200 -480 Descending Miami Center
01:14PM 26.4375 -79.9842 340° North 422 486 37,000 -120 Descending Miami Center
01:15PM 26.5514 -80.0292 341° North 422 486 37,000  Level Miami Center
01:16PM 26.6633 -80.0739 340° North 422 486 37,000  Level Miami Center
01:17PM 26.7772 -80.1167 341° North 427 491 37,000  Level Miami Center
01:18PM 26.8911 -80.1594 341° North 427 491 37,000 -60 Level Miami Center
01:19PM 26.9903 -80.2042 338° Northwest 427 491 36,900  Descending Miami Center
01:20PM 27.1061 -80.2472 342° North 427 491 37,000  Climbing Miami Center
01:21PM 27.2222 -80.2903 342° North 427 491 36,900 -60 Descending Miami Center
01:22PM 27.3358 -80.3358 340° North 432 497 36,900  Level Miami Center
01:23PM 27.4497 -80.3789 341° North 432 497 36,900  Level Miami Center
01:24PM 27.5633 -80.4244 340° North 432 497 36,900  Level Miami Center
01:25PM 27.6917 -80.4731 341° North 432 497 36,900  Level Miami Center
01:26PM 27.8053 -80.5189 340° North 432 497 37,000  Climbing Miami Center
01:27PM 27.9128 -80.5600 341° North 437 503 37,000  Level Miami Center
01:28PM 28.0264 -80.6036 341° North 443 510 37,000  Level Miami Center
01:29PM 28.1400 -80.6475 341° North 443 510 37,000 -60 Level Miami Center
01:30PM 28.2556 -80.6961 340° North 443 510 36,900  Descending Miami Center
01:31PM 28.3836 -80.7478 340° North 443 510 37,000  Climbing Miami Center
01:32PM 28.4889 -80.7892 341° North 443 510 37,000 -60 Level Miami Center
01:33PM 28.6106 -80.8383 340° North 443 510 36,900  Descending Miami Center
01:35PM 28.8067 -80.9164 341° North 464 534 37,000  Climbing Jacksonville Center
01:36PM 28.9264 -80.9617 342° North 464 534 37,000  Level Jacksonville Center
01:37PM 29.0481 -81.0092 341° North 458 527 37,000 -60 Level Jacksonville Center
01:38PM 29.1658 -81.0592 340° North 451 519 36,900 -60 Descending Jacksonville Center
01:39PM 29.2875 -81.1044 342° North 451 519 36,900  Level Jacksonville Center
01:40PM 29.4050 -81.1547 340° North 451 519 37,000  Climbing Jacksonville Center
01:41PM 29.5331 -81.2050 341° North 443 510 37,000  Level Jacksonville Center
01:42PM 29.6506 -81.2508 341° North 438 504 37,000  Level Jacksonville Center
01:43PM 29.7722 -81.2967 342° North 443 510 37,000  Level Jacksonville Center
01:44PM 29.8897 -81.3378 343° North 448 516 37,000  Level Jacksonville Center
01:45PM 30.0092 -81.3861 341° North 448 516 37,000  Level Jacksonville Center
01:46PM 30.1267 -81.4300 342° North 448 516 37,000  Level Jacksonville Center
01:47PM 30.2500 -81.4569 349° North 448 516 37,000  Level Jacksonville Center
01:48PM 30.3858 -81.4525 North 461 531 37,000  Level Jacksonville Center
01:49PM 30.5189 -81.4119 15° North 475 547 37,000  Level Jacksonville Center
01:50PM 30.6453 -81.3400 26° Northeast 484 557 37,000  Level Jacksonville Center
01:51PM 30.7739 -81.2653 27° Northeast 496 571 37,000  Level Jacksonville Center
01:52PM 30.9025 -81.1953 25° Northeast 501 577 37,000  Level Jacksonville Center
01:53PM 31.0289 -81.1203 27° Northeast 501 577 37,000  Level Jacksonville Center
01:54PM 31.1572 -81.0500 25° Northeast 501 577 37,000  Level Jacksonville Center
01:55PM 31.2878 -80.9769 26° Northeast 507 583 37,000  Level Jacksonville Center
01:56PM 31.4139 -80.9036 26° Northeast 507 583 37,000  Level Jacksonville Center
01:57PM 31.5319 -80.8353 26° Northeast 513 590 37,000  Level Jacksonville Center
01:58PM 31.6703 -80.7542 27° Northeast 506 582 37,000  Level Jacksonville Center
01:59PM 31.8028 -80.6803 25° Northeast 506 582 37,000  Level Jacksonville Center
02:00PM 31.9225 -80.6114 26° Northeast 506 582 37,000  Level Jacksonville Center
02:01PM 32.0650 -80.5269 27° Northeast 511 588 37,100  Climbing Jacksonville Center
02:02PM 32.1828 -80.4600 26° Northeast 511 588 37,000 -120 Descending Jacksonville Center
02:03PM 32.3108 -80.3828 27° Northeast 511 588 36,900 -60 Descending Jacksonville Center
02:04PM 32.4408 -80.3056 27° Northeast 511 588 36,900  Level Jacksonville Center
02:05PM 32.5706 -80.2303 26° Northeast 511 588 36,900  Level Jacksonville Center
02:06PM 32.7150 -80.1422 27° Northeast 517 595 36,900  Level Jacksonville Center
02:07PM 32.8428 -80.0664 26° Northeast 517 595 37,000 360 Climbing Jacksonville Center
02:08PM 32.9700 -79.9783 30° Northeast 517 595 37,700 600 Climbing Jacksonville Center
02:09PM 33.0975 -79.8900 30° Northeast 517 595 38,200 600 Climbing Jacksonville Center
02:10PM 33.2206 -79.8014 31° Northeast 522 601 38,900 300 Climbing Jacksonville Center
02:11PM 33.3433 -79.7100 32° Northeast 522 601 38,900  Level Jacksonville Center
02:12PM 33.4706 -79.6158 32° Northeast 521 600 38,900  Level Jacksonville Center
02:13PM 33.5994 -79.5214 31° Northeast 526 605 38,900  Level Jacksonville Center
02:14PM 33.7017 -79.4450 32° Northeast 526 605 39,000  Climbing Jacksonville Center
02:15PM 33.8389 -79.3472 31° Northeast 521 600 39,000 -60 Level Jacksonville Center
02:16PM 33.9675 -79.2542 31° Northeast 526 605 38,900 -60 Descending Jacksonville Center
02:17PM 34.1597 -79.1078 32° Northeast 534 615 38,900  Level Washington Center
02:18PM 34.3028 -78.9983 32° Northeast 544 626 39,000  Climbing Washington Center
02:19PM 34.4197 -78.9150 30° Northeast 544 626 39,000  Level Washington Center
02:20PM 34.5564 -78.8047 34° Northeast 544 626 39,000  Level Washington Center
02:21PM 34.6883 -78.7039 32° Northeast 544 626 39,000  Level Washington Center
02:22PM 34.8161 -78.6075 32° Northeast 553 636 39,000  Level Washington Center
02:23PM 34.9436 -78.5083 33° Northeast 546 628 39,000  Level Washington Center
02:24PM 35.0692 -78.4114 32° Northeast 541 623 39,000  Level Washington Center
02:25PM 35.1989 -78.3092 33° Northeast 541 623 39,000  Level Washington Center
02:26PM 35.3306 -78.2067 32° Northeast 552 635 39,000  Level Washington Center
02:27PM 35.4600 -78.1064 32° Northeast 552 635 39,000  Level Washington Center
02:28PM 35.5786 -78.0156 32° Northeast 552 635 39,000  Level Washington Center
02:29PM 35.7081 -77.9122 33° Northeast 552 635 39,000  Level Washington Center
02:30PM 35.8392 -77.8133 31° Northeast 557 641 39,000  Level Washington Center
02:31PM 35.9831 -77.7019 32° Northeast 557 641 39,000  Level Washington Center
02:32PM 36.0956 -77.5969 37° Northeast 557 641 39,000  Level Washington Center
02:33PM 36.2206 -77.4817 37° Northeast 557 641 39,000  Level Washington Center
02:34PM 36.3517 -77.3561 38° Northeast 546 628 39,000  Level Washington Center
02:35PM 36.4744 -77.2400 37° Northeast 546 628 39,000  Level Washington Center
02:36PM 36.6011 -77.1211 37° Northeast 556 640 39,000  Level Washington Center
02:37PM 36.7236 -77.0042 37° Northeast 561 646 39,000  Level Washington Center
02:38PM 36.8522 -76.8872 36° Northeast 561 646 39,000  Level Washington Center
02:39PM 36.9806 -76.7722 36° Northeast 561 646 39,000  Level Washington Center
02:40PM 37.1089 -76.6519 37° Northeast 567 652 39,000  Level Washington Center
02:41PM 37.2372 -76.5361 36° Northeast 567 652 39,000  Level Washington Center
02:42PM 37.3528 -76.4331 35° Northeast 572 658 39,000  Level Washington Center
02:43PM 37.4806 -76.3142 36° Northeast 572 658 39,000  Level Washington Center
02:44PM 37.6106 -76.1947 36° Northeast 577 664 39,000 -60 Level Washington Center
02:45PM 37.7531 -76.0725 34° Northeast 572 658 38,900  Descending Washington Center
02:46PM 37.8661 -75.9600 38° Northeast 567 652 39,000  Climbing Washington Center
02:47PM 37.9936 -75.8422 36° Northeast 567 652 39,000  Level Washington Center
02:48PM 38.1189 -75.7211 37° Northeast 567 652 39,000  Level Washington Center
02:49PM 38.2481 -75.6022 36° Northeast 567 652 39,000  Level Washington Center
02:50PM 38.3900 -75.5042 28° Northeast 572 658 39,000  Level Washington Center
02:51PM 38.5358 -75.4406 19° North 558 642 39,000 -60 Level Washington Center
02:52PM 38.6858 -75.3975 13° North 550 633 38,900 -60 Descending Washington Center
02:53PM 38.8400 -75.3572 12° North 550 633 38,900  Level Washington Center
02:54PM 38.9900 -75.3139 13° North 550 633 39,000  Climbing Washington Center
02:55PM 39.1464 -75.2731 11° North 550 633 39,000  Level Washington Center
02:56PM 39.2942 -75.2269 14° North 550 633 39,000  Level Washington Center
02:57PM 39.4461 -75.1803 13° North 550 633 39,000 -60 Level Washington Center
02:58PM 39.6003 -75.1392 12° North 550 633 38,900  Descending Washington Center
02:59PM 39.7542 -75.0894 14° North 555 639 39,000  Climbing Washington Center
03:01PM 40.0183 -75.0156 12° North 604 695 39,000 -60 Level New York Center
03:02PM 40.1681 -74.9703 13° North 573 659 38,900 -60 Descending New York Center
03:03PM 40.3219 -74.9225 13° North 558 642 38,900  Level New York Center
03:04PM 40.4736 -74.8769 13° North 558 642 39,000  Climbing New York Center
03:05PM 40.6272 -74.8317 13° North 553 636 38,900 -60 Descending New York Center
03:07PM 40.9558 -74.7322 13° North 574 661 38,900  Level Boston Center
03:08PM 41.1047 -74.6825 14° North 557 641 39,000  Climbing Boston Center
03:09PM 41.2639 -74.6383 12° North 557 641 39,000  Level Boston Center
03:10PM 41.4150 -74.5908 13° North 563 648 39,000  Level Boston Center
03:11PM 41.5658 -74.5433 13° North 568 654 39,000  Level Boston Center
03:12PM 41.7189 -74.4956 13° North 557 641 39,000  Level Boston Center
03:13PM 41.8719 -74.4475 13° North 557 641 39,000  Level Boston Center
03:14PM 42.0081 -74.4100 12° North 557 641 39,000  Level Boston Center
03:15PM 42.1611 -74.3614 13° North 552 635 39,000  Level Boston Center
03:16PM 42.3142 -74.3128 13° North 552 635 39,000  Level Boston Center
03:17PM 42.4669 -74.2667 13° North 552 635 39,000 -60 Level Boston Center
03:18PM 42.6136 -74.2147 15° North 552 635 38,900  Descending Boston Center
03:19PM 42.7625 -74.1653 14° North 546 628 39,000  Climbing Boston Center
03:20PM 42.9322 -74.1103 13° North 551 634 39,000 -60 Level Boston Center
03:21PM 43.0786 -74.0631 13° North 546 628 38,900 -60 Descending Boston Center
03:22PM 43.2253 -74.0158 13° North 546 628 38,900  Level Boston Center
03:23PM 43.3781 -73.9625 14° North 553 636 39,000  Climbing Boston Center
03:24PM 43.5119 -73.9203 13° North 553 636 39,000  Level Boston Center
03:25PM 43.6775 -73.8639 14° North 548 631 39,000 -180 Level Boston Center
03:26PM 43.8258 -73.8128 14° North 548 631 38,700 -1,500 Descending Boston Center
03:27PM 43.9619 -73.7697 13° North 548 631 36,000 -3,780 Descending Boston Center
03:28PM 44.1167 -73.7183 13° North 557 641 31,200 -4,080 Descending Boston Center
03:29PM 44.2756 -73.6636 14° North 574 661 27,900 -3,480 Descending Boston Center
03:30PM 44.4261 -73.6144 13° North 559 643 24,300 -2,400 Descending Boston Center
03:31PM 44.5622 -73.5647 15° North 531 611 23,100 -1,560 Descending Boston Center
03:32PM 44.6769 -73.5347 11° North 470 541 21,200 -2,220 Descending Boston Center
03:33PM 44.7853 -73.5339 360° North 421 484 18,700 -2,880 Descending Boston Center
03:34PM 44.8831 -73.5475 354° North 377 434 15,500 -3,240 Descending Boston Center
03:35PM 44.9667 -73.5500 359° North 360 414 13,200 -2,460 Descending Montreal Center
03:36PM 45.0500 -73.5500 360° North 350 403 11,300 -1,500 Descending Montreal Center
03:37PM 45.1500 -73.5667 353° North 320 368 10,200 -1,080 Descending Montreal Center
03:38PM 45.2333 -73.5667 360° North 290 334 9,200 -600 Descending Montreal Center
03:39PM 45.3167 -73.5833 352° North 290 334 9,000 -900 Descending Montreal Center
03:40PM 45.3833 -73.5833 360° North 280 322 7,500 -1,620 Descending Montreal Center
03:41PM 45.4500 -73.5333 28° Northeast 290 334 5,800 -1,560 Descending Montreal Center
03:42PM 45.5167 -73.4500 41° Northeast 260 299 4,400 -900 Descending Montreal Center
03:43PM 45.5667 -73.4000 35° Northeast 240 276 4,000 -300 Descending Montreal Center
03:44PM 45.6167 -73.4333 335° Northwest 190 219 3,800 -480 Descending Montreal Center
03:45PM 45.6333 -73.4833 296° West 160 184 3,100 -420 Descending Montreal Center
03:46PM 45.6167 -73.5500 250° West 150 173 3,000 -60 Descending Montreal Center
03:47PM 45.5833 -73.5667 199° South 150 173 3,000 -360 Level Montreal Center
03:48PM 45.5500 -73.6167 226° Southwest 150 173 2,300 -720 Descending Montreal Center
03:49PM 45.5167 -73.6667 226° Southwest 140 161 1,600 -780 Descending Montreal Center
03:50PM 45.5000 -73.7000 235° Southwest 120 138 800 -720 Descending Montreal Center
03:51PM 45.4667 -73.7167 199° South 120 138 200 -360 Descending Montreal Center
03:52PM 45.4500 -73.7500 235° Southwest 40 46 100  Descending Montreal Center
03:53PM 45.4500 -73.7500 235° Southwest 30 35 200 60 Climbing Montreal Center